sensor_id;sensor_type;location;lat;lon;timestamp;P1;durP1;ratioP1;P2;durP2;ratioP2
2624;SDS011;1322;53.256;10.386;2023-06-19T00:01:54;11.43;;;9.30;;
2624;SDS011;1322;53.256;10.386;2023-06-19T00:04:20;10.90;;;9.20;;
2624;SDS011;1322;53.256;10.386;2023-06-19T00:06:45;11.17;;;10.17;;
2624;SDS011;1322;53.256;10.386;2023-06-19T00:09:11;10.57;;;9.47;;
2624;SDS011;1322;53.256;10.386;2023-06-19T00:11:36;10.30;;;9.20;;
2624;SDS011;1322;53.256;10.386;2023-06-19T00:14:02;10.93;;;9.80;;
2624;SDS011;1322;53.256;10.386;2023-06-19T00:16:28;9.93;;;9.03;;
2624;SDS011;1322;53.256;10.386;2023-06-19T00:18:54;10.10;;;8.50;;
2624;SDS011;1322;53.256;10.386;2023-06-19T00:21:21;10.17;;;9.10;;
2624;SDS011;1322;53.256;10.386;2023-06-19T00:23:49;10.30;;;9.30;;
2624;SDS011;1322;53.256;10.386;2023-06-19T00:26:16;10.80;;;9.90;;
2624;SDS011;1322;53.256;10.386;2023-06-19T00:28:42;9.90;;;9.00;;
2624;SDS011;1322;53.256;10.386;2023-06-19T00:31:10;10.07;;;8.70;;
2624;SDS011;1322;53.256;10.386;2023-06-19T00:33:38;10.50;;;9.50;;
2624;SDS011;1322;53.256;10.386;2023-06-19T00:36:11;10.20;;;9.30;;
2624;SDS011;1322;53.256;10.386;2023-06-19T00:38:38;10.03;;;9.03;;
2624;SDS011;1322;53.256;10.386;2023-06-19T00:41:04;10.67;;;9.67;;
2624;SDS011;1322;53.256;10.386;2023-06-19T00:43:31;9.90;;;8.90;;
2624;SDS011;1322;53.256;10.386;2023-06-19T00:45:57;9.37;;;8.37;;
2624;SDS011;1322;53.256;10.386;2023-06-19T00:48:23;10.20;;;9.07;;
2624;SDS011;1322;53.256;10.386;2023-06-19T00:50:51;9.13;;;8.23;;
2624;SDS011;1322;53.256;10.386;2023-06-19T00:53:17;12.03;;;9.17;;
2624;SDS011;1322;53.256;10.386;2023-06-19T00:55:44;9.47;;;8.63;;
2624;SDS011;1322;53.256;10.386;2023-06-19T00:58:11;10.03;;;8.83;;
2624;SDS011;1322;53.256;10.386;2023-06-19T01:00:37;10.10;;;9.10;;
2624;SDS011;1322;53.256;10.386;2023-06-19T01:03:02;10.40;;;9.50;;
2624;SDS011;1322;53.256;10.386;2023-06-19T01:05:29;10.20;;;9.17;;
2624;SDS011;1322;53.256;10.386;2023-06-19T01:10:59;10.73;;;9.83;;
2624;SDS011;1322;53.256;10.386;2023-06-19T01:16:06;13.90;;;9.10;;
2624;SDS011;1322;53.256;10.386;2023-06-19T01:18:32;10.17;;;9.17;;
2624;SDS011;1322;53.256;10.386;2023-06-19T01:21:14;9.80;;;8.97;;
2624;SDS011;1322;53.256;10.386;2023-06-19T01:23:44;9.90;;;8.90;;
2624;SDS011;1322;53.256;10.386;2023-06-19T01:26:10;11.43;;;10.23;;
2624;SDS011;1322;53.256;10.386;2023-06-19T01:28:38;11.03;;;9.93;;
2624;SDS011;1322;53.256;10.386;2023-06-19T01:31:08;9.70;;;8.50;;
2624;SDS011;1322;53.256;10.386;2023-06-19T01:33:38;10.17;;;8.60;;
2624;SDS011;1322;53.256;10.386;2023-06-19T01:36:07;9.53;;;8.73;;
2624;SDS011;1322;53.256;10.386;2023-06-19T01:38:35;11.40;;;9.37;;
2624;SDS011;1322;53.256;10.386;2023-06-19T01:41:02;10.60;;;9.60;;
2624;SDS011;1322;53.256;10.386;2023-06-19T01:43:31;10.33;;;8.53;;
2624;SDS011;1322;53.256;10.386;2023-06-19T01:45:58;10.17;;;9.23;;
2624;SDS011;1322;53.256;10.386;2023-06-19T01:48:27;10.33;;;9.33;;
2624;SDS011;1322;53.256;10.386;2023-06-19T01:50:53;10.73;;;9.73;;
2624;SDS011;1322;53.256;10.386;2023-06-19T01:53:19;10.13;;;9.20;;
2624;SDS011;1322;53.256;10.386;2023-06-19T01:55:44;10.10;;;9.20;;
2624;SDS011;1322;53.256;10.386;2023-06-19T01:58:10;11.03;;;10.10;;
2624;SDS011;1322;53.256;10.386;2023-06-19T02:00:36;10.20;;;9.20;;
2624;SDS011;1322;53.256;10.386;2023-06-19T02:03:02;9.83;;;8.90;;
2624;SDS011;1322;53.256;10.386;2023-06-19T02:05:29;10.27;;;9.33;;
2624;SDS011;1322;53.256;10.386;2023-06-19T02:07:55;10.60;;;9.60;;
2624;SDS011;1322;53.256;10.386;2023-06-19T02:10:21;10.07;;;9.10;;
2624;SDS011;1322;53.256;10.386;2023-06-19T02:12:47;10.67;;;9.70;;
2624;SDS011;1322;53.256;10.386;2023-06-19T02:15:12;11.20;;;10.20;;
2624;SDS011;1322;53.256;10.386;2023-06-19T02:17:38;10.53;;;9.53;;
2624;SDS011;1322;53.256;10.386;2023-06-19T02:20:04;10.07;;;9.23;;
2624;SDS011;1322;53.256;10.386;2023-06-19T02:22:37;11.10;;;9.90;;
2624;SDS011;1322;53.256;10.386;2023-06-19T02:25:04;9.50;;;8.63;;
2624;SDS011;1322;53.256;10.386;2023-06-19T02:27:30;10.73;;;9.63;;
2624;SDS011;1322;53.256;10.386;2023-06-19T02:29:56;11.10;;;10.10;;
2624;SDS011;1322;53.256;10.386;2023-06-19T02:32:22;10.93;;;9.87;;
2624;SDS011;1322;53.256;10.386;2023-06-19T02:34:47;9.97;;;8.97;;
2624;SDS011;1322;53.256;10.386;2023-06-19T02:37:13;10.47;;;9.47;;
2624;SDS011;1322;53.256;10.386;2023-06-19T02:39:39;10.00;;;9.10;;
2624;SDS011;1322;53.256;10.386;2023-06-19T02:42:04;9.07;;;8.27;;
2624;SDS011;1322;53.256;10.386;2023-06-19T02:44:31;10.27;;;9.27;;
2624;SDS011;1322;53.256;10.386;2023-06-19T02:46:57;9.70;;;8.80;;
2624;SDS011;1322;53.256;10.386;2023-06-19T02:49:22;10.90;;;9.90;;
2624;SDS011;1322;53.256;10.386;2023-06-19T02:51:48;11.70;;;10.70;;
2624;SDS011;1322;53.256;10.386;2023-06-19T02:54:14;10.97;;;9.87;;
2624;SDS011;1322;53.256;10.386;2023-06-19T02:56:39;11.83;;;8.73;;
2624;SDS011;1322;53.256;10.386;2023-06-19T02:59:05;11.47;;;10.30;;
2624;SDS011;1322;53.256;10.386;2023-06-19T03:01:31;11.90;;;10.70;;
2624;SDS011;1322;53.256;10.386;2023-06-19T03:03:56;10.13;;;9.20;;
2624;SDS011;1322;53.256;10.386;2023-06-19T03:06:22;11.40;;;10.33;;
2624;SDS011;1322;53.256;10.386;2023-06-19T03:08:48;10.77;;;9.63;;
2624;SDS011;1322;53.256;10.386;2023-06-19T03:11:16;11.90;;;10.77;;
2624;SDS011;1322;53.256;10.386;2023-06-19T03:13:52;12.00;;;10.47;;
2624;SDS011;1322;53.256;10.386;2023-06-19T03:16:19;10.63;;;8.97;;
2624;SDS011;1322;53.256;10.386;2023-06-19T03:18:46;10.90;;;9.90;;
2624;SDS011;1322;53.256;10.386;2023-06-19T03:21:12;10.77;;;9.80;;
2624;SDS011;1322;53.256;10.386;2023-06-19T03:23:41;11.40;;;9.50;;
2624;SDS011;1322;53.256;10.386;2023-06-19T03:26:07;10.60;;;9.50;;
2624;SDS011;1322;53.256;10.386;2023-06-19T03:28:33;9.80;;;8.80;;
2624;SDS011;1322;53.256;10.386;2023-06-19T03:30:59;11.37;;;10.37;;
2624;SDS011;1322;53.256;10.386;2023-06-19T03:33:25;10.63;;;9.63;;
2624;SDS011;1322;53.256;10.386;2023-06-19T03:35:51;11.10;;;9.90;;
2624;SDS011;1322;53.256;10.386;2023-06-19T03:38:16;10.90;;;9.80;;
2624;SDS011;1322;53.256;10.386;2023-06-19T03:40:42;11.53;;;10.33;;
2624;SDS011;1322;53.256;10.386;2023-06-19T03:43:08;10.27;;;9.23;;
2624;SDS011;1322;53.256;10.386;2023-06-19T03:45:36;11.10;;;10.10;;
2624;SDS011;1322;53.256;10.386;2023-06-19T03:48:02;11.13;;;10.03;;
2624;SDS011;1322;53.256;10.386;2023-06-19T03:50:28;11.00;;;9.90;;
2624;SDS011;1322;53.256;10.386;2023-06-19T03:52:53;11.80;;;10.23;;
2624;SDS011;1322;53.256;10.386;2023-06-19T03:55:19;11.50;;;10.40;;
2624;SDS011;1322;53.256;10.386;2023-06-19T03:57:45;11.07;;;10.07;;
2624;SDS011;1322;53.256;10.386;2023-06-19T04:00:10;12.80;;;9.30;;
2624;SDS011;1322;53.256;10.386;2023-06-19T04:02:38;11.60;;;10.50;;
2624;SDS011;1322;53.256;10.386;2023-06-19T04:05:04;10.63;;;9.53;;
2624;SDS011;1322;53.256;10.386;2023-06-19T04:07:30;10.90;;;9.90;;
2624;SDS011;1322;53.256;10.386;2023-06-19T04:09:57;10.87;;;9.87;;
2624;SDS011;1322;53.256;10.386;2023-06-19T04:12:23;10.37;;;9.43;;
2624;SDS011;1322;53.256;10.386;2023-06-19T04:14:48;11.37;;;10.27;;
2624;SDS011;1322;53.256;10.386;2023-06-19T04:17:14;10.13;;;9.23;;
2624;SDS011;1322;53.256;10.386;2023-06-19T04:19:40;10.37;;;9.47;;
2624;SDS011;1322;53.256;10.386;2023-06-19T04:22:06;9.40;;;8.50;;
2624;SDS011;1322;53.256;10.386;2023-06-19T04:24:32;10.20;;;9.30;;
2624;SDS011;1322;53.256;10.386;2023-06-19T04:26:58;12.90;;;9.70;;
2624;SDS011;1322;53.256;10.386;2023-06-19T04:29:23;11.40;;;10.30;;
2624;SDS011;1322;53.256;10.386;2023-06-19T04:31:49;10.50;;;9.50;;
2624;SDS011;1322;53.256;10.386;2023-06-19T04:34:15;10.60;;;9.53;;
2624;SDS011;1322;53.256;10.386;2023-06-19T04:36:42;10.83;;;9.93;;
2624;SDS011;1322;53.256;10.386;2023-06-19T04:39:09;10.60;;;9.60;;
2624;SDS011;1322;53.256;10.386;2023-06-19T04:41:36;10.33;;;9.43;;
2624;SDS011;1322;53.256;10.386;2023-06-19T04:44:04;11.67;;;10.57;;
2624;SDS011;1322;53.256;10.386;2023-06-19T04:46:30;12.63;;;10.03;;
2624;SDS011;1322;53.256;10.386;2023-06-19T04:48:55;12.80;;;10.60;;
2624;SDS011;1322;53.256;10.386;2023-06-19T04:51:21;10.20;;;9.27;;
2624;SDS011;1322;53.256;10.386;2023-06-19T04:53:47;10.43;;;8.83;;
2624;SDS011;1322;53.256;10.386;2023-06-19T04:56:13;10.50;;;8.97;;
2624;SDS011;1322;53.256;10.386;2023-06-19T04:58:40;11.03;;;10.00;;
2624;SDS011;1322;53.256;10.386;2023-06-19T05:01:13;10.07;;;9.17;;
2624;SDS011;1322;53.256;10.386;2023-06-19T05:03:40;10.33;;;9.33;;
2624;SDS011;1322;53.256;10.386;2023-06-19T05:06:06;10.63;;;9.53;;
2624;SDS011;1322;53.256;10.386;2023-06-19T05:08:32;11.13;;;10.13;;
2624;SDS011;1322;53.256;10.386;2023-06-19T05:10:58;10.00;;;9.10;;
2624;SDS011;1322;53.256;10.386;2023-06-19T05:13:24;11.17;;;9.17;;
2624;SDS011;1322;53.256;10.386;2023-06-19T05:15:49;10.53;;;9.50;;
2624;SDS011;1322;53.256;10.386;2023-06-19T05:18:18;10.20;;;9.30;;
2624;SDS011;1322;53.256;10.386;2023-06-19T05:20:44;10.13;;;8.90;;
2624;SDS011;1322;53.256;10.386;2023-06-19T05:23:10;10.63;;;9.63;;
2624;SDS011;1322;53.256;10.386;2023-06-19T05:25:35;9.57;;;8.77;;
2624;SDS011;1322;53.256;10.386;2023-06-19T05:28:01;10.83;;;9.93;;
2624;SDS011;1322;53.256;10.386;2023-06-19T05:30:27;10.27;;;9.37;;
2624;SDS011;1322;53.256;10.386;2023-06-19T05:32:52;11.77;;;10.67;;
2624;SDS011;1322;53.256;10.386;2023-06-19T05:35:18;11.17;;;10.17;;
2624;SDS011;1322;53.256;10.386;2023-06-19T05:37:44;11.50;;;10.30;;
2624;SDS011;1322;53.256;10.386;2023-06-19T05:40:10;11.37;;;10.30;;
2624;SDS011;1322;53.256;10.386;2023-06-19T05:42:36;14.47;;;10.20;;
2624;SDS011;1322;53.256;10.386;2023-06-19T05:45:05;11.33;;;10.23;;
2624;SDS011;1322;53.256;10.386;2023-06-19T05:47:31;11.27;;;10.17;;
2624;SDS011;1322;53.256;10.386;2023-06-19T05:49:57;10.13;;;9.13;;
2624;SDS011;1322;53.256;10.386;2023-06-19T05:52:23;11.60;;;10.60;;
2624;SDS011;1322;53.256;10.386;2023-06-19T05:54:49;10.73;;;9.83;;
2624;SDS011;1322;53.256;10.386;2023-06-19T05:57:15;11.00;;;9.90;;
2624;SDS011;1322;53.256;10.386;2023-06-19T05:59:43;11.00;;;10.00;;
2624;SDS011;1322;53.256;10.386;2023-06-19T06:02:09;10.70;;;9.60;;
2624;SDS011;1322;53.256;10.386;2023-06-19T06:04:35;11.10;;;10.10;;
2624;SDS011;1322;53.256;10.386;2023-06-19T06:07:01;12.70;;;9.83;;
2624;SDS011;1322;53.256;10.386;2023-06-19T06:09:27;10.40;;;9.50;;
2624;SDS011;1322;53.256;10.386;2023-06-19T06:11:52;11.50;;;10.40;;
2624;SDS011;1322;53.256;10.386;2023-06-19T06:14:18;12.07;;;10.80;;
2624;SDS011;1322;53.256;10.386;2023-06-19T06:16:46;11.67;;;10.67;;
2624;SDS011;1322;53.256;10.386;2023-06-19T06:19:12;13.70;;;10.43;;
2624;SDS011;1322;53.256;10.386;2023-06-19T06:21:37;11.53;;;10.40;;
2624;SDS011;1322;53.256;10.386;2023-06-19T06:24:03;11.87;;;10.80;;
2624;SDS011;1322;53.256;10.386;2023-06-19T06:26:29;11.80;;;10.70;;
2624;SDS011;1322;53.256;10.386;2023-06-19T06:28:55;12.33;;;11.13;;
2624;SDS011;1322;53.256;10.386;2023-06-19T06:31:22;13.40;;;12.00;;
2624;SDS011;1322;53.256;10.386;2023-06-19T06:33:48;12.67;;;11.17;;
2624;SDS011;1322;53.256;10.386;2023-06-19T06:36:14;11.77;;;10.77;;
2624;SDS011;1322;53.256;10.386;2023-06-19T06:38:40;11.97;;;10.90;;
2624;SDS011;1322;53.256;10.386;2023-06-19T06:41:06;14.57;;;11.83;;
2624;SDS011;1322;53.256;10.386;2023-06-19T06:43:32;12.77;;;11.00;;
2624;SDS011;1322;53.256;10.386;2023-06-19T06:45:57;11.87;;;10.67;;
2624;SDS011;1322;53.256;10.386;2023-06-19T06:48:23;12.67;;;11.43;;
2624;SDS011;1322;53.256;10.386;2023-06-19T06:50:49;11.63;;;10.53;;
2624;SDS011;1322;53.256;10.386;2023-06-19T06:53:14;12.03;;;10.83;;
2624;SDS011;1322;53.256;10.386;2023-06-19T06:55:40;13.00;;;11.70;;
2624;SDS011;1322;53.256;10.386;2023-06-19T06:58:05;12.40;;;10.83;;
2624;SDS011;1322;53.256;10.386;2023-06-19T07:00:31;12.13;;;11.10;;
2624;SDS011;1322;53.256;10.386;2023-06-19T07:02:57;12.80;;;11.60;;
2624;SDS011;1322;53.256;10.386;2023-06-19T07:05:22;13.30;;;12.10;;
2624;SDS011;1322;53.256;10.386;2023-06-19T07:07:48;11.97;;;10.77;;
2624;SDS011;1322;53.256;10.386;2023-06-19T07:10:14;13.00;;;11.63;;
2624;SDS011;1322;53.256;10.386;2023-06-19T07:12:47;12.97;;;11.77;;
2624;SDS011;1322;53.256;10.386;2023-06-19T07:15:13;12.50;;;11.40;;
2624;SDS011;1322;53.256;10.386;2023-06-19T07:17:39;13.73;;;11.50;;
2624;SDS011;1322;53.256;10.386;2023-06-19T07:20:05;13.50;;;12.13;;
2624;SDS011;1322;53.256;10.386;2023-06-19T07:22:31;13.90;;;11.50;;
2624;SDS011;1322;53.256;10.386;2023-06-19T07:24:57;13.90;;;12.57;;
2624;SDS011;1322;53.256;10.386;2023-06-19T07:27:23;12.20;;;11.00;;
2624;SDS011;1322;53.256;10.386;2023-06-19T07:29:52;13.03;;;11.83;;
2624;SDS011;1322;53.256;10.386;2023-06-19T07:32:18;13.90;;;10.33;;
2624;SDS011;1322;53.256;10.386;2023-06-19T07:34:44;15.53;;;10.77;;
2624;SDS011;1322;53.256;10.386;2023-06-19T07:37:10;13.43;;;12.23;;
2624;SDS011;1322;53.256;10.386;2023-06-19T07:39:42;11.77;;;10.67;;
2624;SDS011;1322;53.256;10.386;2023-06-19T07:42:12;11.80;;;10.60;;
2624;SDS011;1322;53.256;10.386;2023-06-19T07:44:39;15.87;;;10.10;;
2624;SDS011;1322;53.256;10.386;2023-06-19T07:47:05;12.43;;;11.03;;
2624;SDS011;1322;53.256;10.386;2023-06-19T07:49:30;12.50;;;11.30;;
2624;SDS011;1322;53.256;10.386;2023-06-19T07:51:56;12.30;;;11.13;;
2624;SDS011;1322;53.256;10.386;2023-06-19T07:54:21;13.07;;;11.77;;
2624;SDS011;1322;53.256;10.386;2023-06-19T07:56:47;18.13;;;11.03;;
2624;SDS011;1322;53.256;10.386;2023-06-19T07:59:13;11.70;;;10.70;;
2624;SDS011;1322;53.256;10.386;2023-06-19T08:01:39;14.00;;;11.60;;
2624;SDS011;1322;53.256;10.386;2023-06-19T08:04:05;11.80;;;10.70;;
2624;SDS011;1322;53.256;10.386;2023-06-19T08:06:31;11.53;;;10.33;;
2624;SDS011;1322;53.256;10.386;2023-06-19T08:08:57;11.63;;;10.43;;
2624;SDS011;1322;53.256;10.386;2023-06-19T08:11:23;13.30;;;10.60;;
2624;SDS011;1322;53.256;10.386;2023-06-19T08:13:48;11.83;;;10.60;;
2624;SDS011;1322;53.256;10.386;2023-06-19T08:16:14;10.80;;;9.83;;
2624;SDS011;1322;53.256;10.386;2023-06-19T08:18:40;14.40;;;10.77;;
2624;SDS011;1322;53.256;10.386;2023-06-19T08:21:05;12.27;;;11.00;;
2624;SDS011;1322;53.256;10.386;2023-06-19T08:23:31;11.13;;;10.13;;
2624;SDS011;1322;53.256;10.386;2023-06-19T08:25:56;11.90;;;10.80;;
2624;SDS011;1322;53.256;10.386;2023-06-19T08:28:23;11.73;;;10.27;;
2624;SDS011;1322;53.256;10.386;2023-06-19T08:30:49;12.53;;;10.33;;
2624;SDS011;1322;53.256;10.386;2023-06-19T08:33:14;11.57;;;10.27;;
2624;SDS011;1322;53.256;10.386;2023-06-19T08:35:40;12.30;;;11.20;;
2624;SDS011;1322;53.256;10.386;2023-06-19T08:38:06;11.00;;;9.90;;
2624;SDS011;1322;53.256;10.386;2023-06-19T08:40:32;11.30;;;10.30;;
2624;SDS011;1322;53.256;10.386;2023-06-19T08:42:58;11.50;;;10.40;;
2624;SDS011;1322;53.256;10.386;2023-06-19T08:45:25;12.17;;;10.70;;
2624;SDS011;1322;53.256;10.386;2023-06-19T08:47:57;12.10;;;10.90;;
2624;SDS011;1322;53.256;10.386;2023-06-19T08:50:28;11.37;;;10.27;;
2624;SDS011;1322;53.256;10.386;2023-06-19T08:52:55;11.20;;;10.20;;
2624;SDS011;1322;53.256;10.386;2023-06-19T08:55:21;11.50;;;10.40;;
2624;SDS011;1322;53.256;10.386;2023-06-19T08:57:47;11.57;;;10.57;;
2624;SDS011;1322;53.256;10.386;2023-06-19T09:00:24;11.20;;;10.10;;
2624;SDS011;1322;53.256;10.386;2023-06-19T09:02:52;12.80;;;11.50;;
2624;SDS011;1322;53.256;10.386;2023-06-19T09:05:24;13.20;;;11.47;;
2624;SDS011;1322;53.256;10.386;2023-06-19T09:07:54;12.93;;;11.60;;
2624;SDS011;1322;53.256;10.386;2023-06-19T09:10:21;11.70;;;10.50;;
2624;SDS011;1322;53.256;10.386;2023-06-19T09:13:04;13.27;;;10.70;;
2624;SDS011;1322;53.256;10.386;2023-06-19T09:15:32;11.90;;;10.80;;
2624;SDS011;1322;53.256;10.386;2023-06-19T09:20:30;12.80;;;11.47;;
2624;SDS011;1322;53.256;10.386;2023-06-19T09:22:57;13.03;;;11.83;;
2624;SDS011;1322;53.256;10.386;2023-06-19T09:25:24;11.00;;;10.10;;
2624;SDS011;1322;53.256;10.386;2023-06-19T09:27:52;19.03;;;10.83;;
2624;SDS011;1322;53.256;10.386;2023-06-19T09:30:18;13.73;;;10.93;;
2624;SDS011;1322;53.256;10.386;2023-06-19T09:32:44;12.30;;;11.20;;
2624;SDS011;1322;53.256;10.386;2023-06-19T09:35:10;12.73;;;11.63;;
2624;SDS011;1322;53.256;10.386;2023-06-19T09:37:36;12.95;;;11.75;;
2624;SDS011;1322;53.256;10.386;2023-06-19T09:40:05;12.88;;;11.68;;
2624;SDS011;1322;53.256;10.386;2023-06-19T09:42:36;12.10;;;11.00;;
2624;SDS011;1322;53.256;10.386;2023-06-19T09:45:06;12.65;;;11.55;;
2624;SDS011;1322;53.256;10.386;2023-06-19T09:47:37;13.40;;;12.30;;
2624;SDS011;1322;53.256;10.386;2023-06-19T09:50:05;15.20;;;11.98;;
2624;SDS011;1322;53.256;10.386;2023-06-19T09:52:32;13.77;;;12.48;;
2624;SDS011;1322;53.256;10.386;2023-06-19T09:54:58;23.80;;;18.80;;
2624;SDS011;1322;53.256;10.386;2023-06-19T09:57:30;15.75;;;12.65;;
2624;SDS011;1322;53.256;10.386;2023-06-19T09:59:57;13.80;;;12.55;;
2624;SDS011;1322;53.256;10.386;2023-06-19T10:02:25;16.58;;;13.05;;
2624;SDS011;1322;53.256;10.386;2023-06-19T10:04:53;13.93;;;12.63;;
2624;SDS011;1322;53.256;10.386;2023-06-19T10:07:23;16.85;;;12.98;;
2624;SDS011;1322;53.256;10.386;2023-06-19T10:09:58;12.63;;;11.32;;
2624;SDS011;1322;53.256;10.386;2023-06-19T10:12:40;14.25;;;12.73;;
2624;SDS011;1322;53.256;10.386;2023-06-19T10:20:22;13.40;;;12.20;;
2624;SDS011;1322;53.256;10.386;2023-06-19T10:22:55;13.40;;;12.20;;
2624;SDS011;1322;53.256;10.386;2023-06-19T10:25:31;13.10;;;12.00;;
2624;SDS011;1322;53.256;10.386;2023-06-19T10:28:00;14.23;;;12.85;;
2624;SDS011;1322;53.256;10.386;2023-06-19T10:30:26;12.43;;;11.27;;
2624;SDS011;1322;53.256;10.386;2023-06-19T10:32:54;13.77;;;12.30;;
2624;SDS011;1322;53.256;10.386;2023-06-19T10:35:19;12.45;;;11.32;;
2624;SDS011;1322;53.256;10.386;2023-06-19T10:37:49;12.20;;;11.15;;
2624;SDS011;1322;53.256;10.386;2023-06-19T10:40:15;12.32;;;11.27;;
2624;SDS011;1322;53.256;10.386;2023-06-19T10:42:42;11.73;;;10.68;;
2624;SDS011;1322;53.256;10.386;2023-06-19T10:45:13;11.23;;;10.32;;
2624;SDS011;1322;53.256;10.386;2023-06-19T10:47:42;12.10;;;10.90;;
2624;SDS011;1322;53.256;10.386;2023-06-19T10:50:13;12.13;;;11.00;;
2624;SDS011;1322;53.256;10.386;2023-06-19T10:52:45;12.20;;;11.10;;
2624;SDS011;1322;53.256;10.386;2023-06-19T10:55:12;11.50;;;10.40;;
2624;SDS011;1322;53.256;10.386;2023-06-19T10:57:48;9.70;;;8.80;;
2624;SDS011;1322;53.256;10.386;2023-06-19T11:00:24;10.98;;;9.98;;
2624;SDS011;1322;53.256;10.386;2023-06-19T11:02:52;11.43;;;10.32;;
2624;SDS011;1322;53.256;10.386;2023-06-19T11:05:21;10.55;;;9.55;;
2624;SDS011;1322;53.256;10.386;2023-06-19T11:07:58;10.30;;;9.32;;
2624;SDS011;1322;53.256;10.386;2023-06-19T11:10:28;10.23;;;9.23;;
2624;SDS011;1322;53.256;10.386;2023-06-19T11:12:55;10.52;;;9.63;;
2624;SDS011;1322;53.256;10.386;2023-06-19T11:15:32;10.85;;;9.77;;
2624;SDS011;1322;53.256;10.386;2023-06-19T11:17:59;11.20;;;10.20;;
2624;SDS011;1322;53.256;10.386;2023-06-19T11:20:26;11.27;;;10.27;;
2624;SDS011;1322;53.256;10.386;2023-06-19T11:22:56;10.65;;;9.65;;
2624;SDS011;1322;53.256;10.386;2023-06-19T11:25:25;11.35;;;10.25;;
2624;SDS011;1322;53.256;10.386;2023-06-19T11:28:03;11.85;;;10.65;;
2624;SDS011;1322;53.256;10.386;2023-06-19T11:30:31;14.73;;;12.50;;
2624;SDS011;1322;53.256;10.386;2023-06-19T11:32:58;17.20;;;11.35;;
2624;SDS011;1322;53.256;10.386;2023-06-19T11:35:24;11.23;;;10.27;;
2624;SDS011;1322;53.256;10.386;2023-06-19T11:37:50;11.43;;;10.40;;
2624;SDS011;1322;53.256;10.386;2023-06-19T11:40:16;11.43;;;10.43;;
2624;SDS011;1322;53.256;10.386;2023-06-19T11:43:02;10.55;;;9.45;;
2624;SDS011;1322;53.256;10.386;2023-06-19T11:45:28;10.43;;;9.48;;
2624;SDS011;1322;53.256;10.386;2023-06-19T11:47:54;10.60;;;9.55;;
2624;SDS011;1322;53.256;10.386;2023-06-19T11:50:19;10.63;;;9.63;;
2624;SDS011;1322;53.256;10.386;2023-06-19T11:52:52;10.63;;;9.57;;
2624;SDS011;1322;53.256;10.386;2023-06-19T11:55:18;10.20;;;9.30;;
2624;SDS011;1322;53.256;10.386;2023-06-19T11:57:43;10.48;;;9.23;;
2624;SDS011;1322;53.256;10.386;2023-06-19T12:00:15;9.43;;;8.55;;
2624;SDS011;1322;53.256;10.386;2023-06-19T12:02:43;9.35;;;8.43;;
2624;SDS011;1322;53.256;10.386;2023-06-19T12:05:09;9.85;;;8.95;;
2624;SDS011;1322;53.256;10.386;2023-06-19T12:07:35;9.75;;;8.85;;
2624;SDS011;1322;53.256;10.386;2023-06-19T12:10:02;9.50;;;8.60;;
2624;SDS011;1322;53.256;10.386;2023-06-19T12:12:29;9.88;;;8.95;;
2624;SDS011;1322;53.256;10.386;2023-06-19T12:14:56;10.15;;;9.25;;
2624;SDS011;1322;53.256;10.386;2023-06-19T12:17:21;9.85;;;8.95;;
2624;SDS011;1322;53.256;10.386;2023-06-19T12:19:47;10.43;;;9.52;;
2624;SDS011;1322;53.256;10.386;2023-06-19T12:22:15;9.18;;;8.38;;
2624;SDS011;1322;53.256;10.386;2023-06-19T12:24:40;10.15;;;9.25;;
2624;SDS011;1322;53.256;10.386;2023-06-19T12:27:06;10.48;;;9.57;;
2624;SDS011;1322;53.256;10.386;2023-06-19T12:29:32;9.98;;;8.82;;
2624;SDS011;1322;53.256;10.386;2023-06-19T12:32:01;10.07;;;9.10;;
2624;SDS011;1322;53.256;10.386;2023-06-19T12:34:27;11.93;;;9.90;;
2624;SDS011;1322;53.256;10.386;2023-06-19T12:36:53;12.75;;;9.38;;
2624;SDS011;1322;53.256;10.386;2023-06-19T12:39:19;10.63;;;9.73;;
2624;SDS011;1322;53.256;10.386;2023-06-19T12:41:45;10.88;;;10.02;;
2624;SDS011;1322;53.256;10.386;2023-06-19T12:44:11;9.98;;;8.90;;
2624;SDS011;1322;53.256;10.386;2023-06-19T12:46:37;10.27;;;9.27;;
2624;SDS011;1322;53.256;10.386;2023-06-19T12:49:04;9.70;;;8.90;;
2624;SDS011;1322;53.256;10.386;2023-06-19T12:51:30;9.05;;;8.25;;
2624;SDS011;1322;53.256;10.386;2023-06-19T12:53:56;9.95;;;9.00;;
2624;SDS011;1322;53.256;10.386;2023-06-19T12:56:21;11.05;;;9.98;;
2624;SDS011;1322;53.256;10.386;2023-06-19T12:58:47;10.77;;;9.68;;
2624;SDS011;1322;53.256;10.386;2023-06-19T13:01:12;10.10;;;9.20;;
2624;SDS011;1322;53.256;10.386;2023-06-19T13:03:38;9.32;;;8.43;;
2624;SDS011;1322;53.256;10.386;2023-06-19T13:06:04;10.45;;;9.45;;
2624;SDS011;1322;53.256;10.386;2023-06-19T13:08:29;8.90;;;8.00;;
2624;SDS011;1322;53.256;10.386;2023-06-19T13:10:58;9.38;;;8.57;;
2624;SDS011;1322;53.256;10.386;2023-06-19T13:13:24;10.07;;;9.15;;
2624;SDS011;1322;53.256;10.386;2023-06-19T13:15:49;9.68;;;8.77;;
2624;SDS011;1322;53.256;10.386;2023-06-19T13:18:15;11.02;;;9.55;;
2624;SDS011;1322;53.256;10.386;2023-06-19T13:20:40;9.27;;;7.97;;
2624;SDS011;1322;53.256;10.386;2023-06-19T13:23:06;8.23;;;7.53;;
2624;SDS011;1322;53.256;10.386;2023-06-19T13:25:32;7.55;;;6.85;;
2624;SDS011;1322;53.256;10.386;2023-06-19T13:27:57;7.07;;;6.45;;
2624;SDS011;1322;53.256;10.386;2023-06-19T13:30:23;6.70;;;6.10;;
2624;SDS011;1322;53.256;10.386;2023-06-19T13:32:49;12.05;;;7.00;;
2624;SDS011;1322;53.256;10.386;2023-06-19T13:35:14;7.38;;;6.68;;
2624;SDS011;1322;53.256;10.386;2023-06-19T13:37:40;6.60;;;6.00;;
2624;SDS011;1322;53.256;10.386;2023-06-19T13:40:06;8.65;;;6.35;;
2624;SDS011;1322;53.256;10.386;2023-06-19T13:42:32;6.60;;;6.00;;
2624;SDS011;1322;53.256;10.386;2023-06-19T13:45:00;6.25;;;5.65;;
2624;SDS011;1322;53.256;10.386;2023-06-19T13:47:26;7.50;;;4.93;;
2624;SDS011;1322;53.256;10.386;2023-06-19T13:49:52;6.95;;;6.35;;
2624;SDS011;1322;53.256;10.386;2023-06-19T13:52:18;7.35;;;5.10;;
2624;SDS011;1322;53.256;10.386;2023-06-19T13:54:44;5.55;;;4.95;;
2624;SDS011;1322;53.256;10.386;2023-06-19T13:57:09;5.60;;;4.63;;
2624;SDS011;1322;53.256;10.386;2023-06-19T13:59:35;5.07;;;4.68;;
2624;SDS011;1322;53.256;10.386;2023-06-19T14:02:01;5.13;;;4.63;;
2624;SDS011;1322;53.256;10.386;2023-06-19T14:04:27;6.68;;;4.70;;
2624;SDS011;1322;53.256;10.386;2023-06-19T14:06:53;4.55;;;4.15;;
2624;SDS011;1322;53.256;10.386;2023-06-19T14:09:20;4.82;;;3.70;;
2624;SDS011;1322;53.256;10.386;2023-06-19T14:11:45;4.72;;;4.28;;
2624;SDS011;1322;53.256;10.386;2023-06-19T14:14:11;4.82;;;3.58;;
2624;SDS011;1322;53.256;10.386;2023-06-19T14:16:37;5.10;;;4.60;;
2624;SDS011;1322;53.256;10.386;2023-06-19T14:19:02;4.95;;;4.45;;
2624;SDS011;1322;53.256;10.386;2023-06-19T14:21:28;5.18;;;4.22;;
2624;SDS011;1322;53.256;10.386;2023-06-19T14:23:54;5.20;;;4.18;;
2624;SDS011;1322;53.256;10.386;2023-06-19T14:26:19;6.55;;;4.28;;
2624;SDS011;1322;53.256;10.386;2023-06-19T14:28:46;4.90;;;3.97;;
2624;SDS011;1322;53.256;10.386;2023-06-19T14:31:11;3.85;;;3.45;;
2624;SDS011;1322;53.256;10.386;2023-06-19T14:33:37;5.32;;;3.85;;
2624;SDS011;1322;53.256;10.386;2023-06-19T14:36:03;9.02;;;4.03;;
2624;SDS011;1322;53.256;10.386;2023-06-19T14:38:29;4.95;;;3.50;;
2624;SDS011;1322;53.256;10.386;2023-06-19T14:47:42;5.97;;;3.58;;
2624;SDS011;1322;53.256;10.386;2023-06-19T14:50:08;3.85;;;3.42;;
2624;SDS011;1322;53.256;10.386;2023-06-19T14:52:34;8.15;;;3.95;;
2624;SDS011;1322;53.256;10.386;2023-06-19T14:55:00;5.00;;;4.50;;
2624;SDS011;1322;53.256;10.386;2023-06-19T14:57:25;4.78;;;3.85;;
2624;SDS011;1322;53.256;10.386;2023-06-19T14:59:51;4.25;;;3.40;;
2624;SDS011;1322;53.256;10.386;2023-06-19T15:02:17;4.45;;;3.83;;
2624;SDS011;1322;53.256;10.386;2023-06-19T15:04:42;3.70;;;3.40;;